Time;durP1;ratioP1;P1;durP2;ratioP2;P2;SDS_P1;SDS_P2;PMS_P1;PMS_P2;Temp;Humidity;BMP_temperature;BMP_pressure;BME280_temperature;BME280_humidity;BME280_pressure;Samples;Min_cycle;Max_cycle;Signal;HPM_P1;HPM_P2
2023/08/27 00:01:26;;;;;;;15.03;13.60;;;16.60;99.90;;;16.26;100.00;97488.28;5108287;28;20453;-71
2023/08/27 00:03:53;;;;;;;15.70;14.10;;;16.60;99.90;;;16.42;100.00;97511.00;5093955;28;20504;-72
2023/08/27 00:06:20;;;;;;;17.23;13.20;;;16.60;99.90;;;16.28;100.00;97494.28;5093624;28;20475;-74
2023/08/27 00:08:50;;;;;;;16.73;14.77;;;16.60;99.90;;;16.19;100.00;97483.06;5087065;28;20521;-71
2023/08/27 00:11:17;;;;;;;19.37;14.70;;;16.50;99.90;;;16.16;100.00;97471.91;5092469;28;20461;-70
2023/08/27 00:13:44;;;;;;;17.57;15.33;;;16.40;99.90;;;16.08;100.00;97454.97;5102569;28;20933;-71
2023/08/27 00:16:11;;;;;;;16.50;15.00;;;16.40;99.90;;;16.09;100.00;97456.59;5092003;28;20440;-71
2023/08/27 00:18:39;;;;;;;16.43;14.87;;;16.30;99.90;;;16.11;100.00;97448.16;5091482;28;20542;-71
2023/08/27 00:21:06;;;;;;;18.60;15.20;;;16.30;99.90;;;16.06;100.00;97439.94;5107523;28;20446;-70
2023/08/27 00:23:33;;;;;;;18.10;14.80;;;16.30;99.90;;;16.06;100.00;97443.50;5088343;28;20447;-70
2023/08/27 00:26:02;;;;;;;16.87;15.17;;;16.20;99.90;;;15.99;100.00;97459.25;5091997;28;20460;-71
2023/08/27 00:28:29;;;;;;;16.97;14.83;;;16.20;99.90;;;16.03;100.00;97465.84;5092132;28;20527;-72
2023/08/27 00:31:01;;;;;;;20.73;13.00;;;16.20;99.90;;;15.98;100.00;97473.97;5093481;28;20535;-72
2023/08/27 00:33:29;;;;;;;17.10;15.30;;;16.10;99.90;;;15.95;100.00;97466.34;5089899;28;20437;-72
2023/08/27 00:35:56;;;;;;;16.20;14.47;;;16.10;99.90;;;15.90;100.00;97455.41;5092593;28;20449;-71
2023/08/27 00:38:23;;;;;;;16.50;14.80;;;16.10;99.90;;;15.86;100.00;97458.66;5092122;28;20515;-71
2023/08/27 00:40:50;;;;;;;16.80;14.47;;;16.10;99.90;;;15.88;100.00;97463.00;5093469;28;20497;-71
2023/08/27 00:43:19;;;;;;;18.13;15.80;;;16.10;99.90;;;15.85;100.00;97435.22;5092547;28;21031;-72
2023/08/27 00:45:47;;;;;;;17.63;15.63;;;16.10;99.90;;;15.86;100.00;97431.41;5093111;28;20474;-72
2023/08/27 00:48:14;;;;;;;16.53;14.83;;;16.10;99.90;;;15.90;100.00;97430.91;5092863;28;20449;-72
2023/08/27 00:50:41;;;;;;;16.97;14.50;;;16.10;99.90;;;15.87;100.00;97440.38;5086827;28;20477;-71
2023/08/27 00:53:08;;;;;;;16.20;14.50;;;16.10;99.90;;;15.83;100.00;97448.25;5091992;28;20932;-72
2023/08/27 00:55:36;;;;;;;16.17;14.50;;;16.10;99.90;;;15.84;100.00;97443.63;5091443;28;20440;-71
2023/08/27 00:58:04;;;;;;;15.30;13.80;;;16.10;99.90;;;15.61;100.00;97398.56;5092904;28;20449;-72
2023/08/27 01:00:33;;;;;;;15.20;13.80;;;16.00;99.90;;;15.90;100.00;97428.19;5093105;28;20949;-72
2023/08/27 01:03:00;;;;;;;15.30;13.70;;;16.00;99.90;;;15.86;100.00;97431.41;5091954;28;20448;-71
2023/08/27 01:05:29;;;;;;;15.77;14.10;;;16.00;99.90;;;15.77;100.00;97427.53;5092069;28;21019;-72
2023/08/27 01:08:04;;;;;;;15.17;13.60;;;15.90;99.90;;;15.82;100.00;97441.16;5088422;28;20505;-71
2023/08/27 01:10:40;;;;;;;14.87;13.37;;;15.90;99.90;;;15.88;100.00;97438.50;5085556;28;20450;-72
2023/08/27 01:13:14;;;;;;;14.80;13.50;;;15.90;99.90;;;15.91;100.00;97446.16;5091670;28;20798;-72
2023/08/27 01:15:43;;;;;;;14.70;13.10;;;16.00;99.90;;;15.93;100.00;97449.44;5091825;28;20455;-71
2023/08/27 01:18:12;;;;;;;16.67;15.07;;;16.00;99.90;;;15.84;100.00;97458.06;5086752;28;20458;-72
2023/08/27 01:20:39;;;;;;;15.53;13.87;;;15.90;99.90;;;15.86;100.00;97457.81;5090962;28;20443;-71
2023/08/27 01:23:08;;;;;;;14.90;13.50;;;15.90;99.90;;;15.89;100.00;97459.19;5090249;28;20941;-72
2023/08/27 01:25:42;;;;;;;14.60;12.03;;;15.90;99.90;;;15.86;100.00;97453.19;5092310;28;20475;-71
2023/08/27 01:28:16;;;;;;;17.33;13.10;;;15.90;99.90;;;15.84;100.00;97433.53;5092189;28;20452;-71
2023/08/27 01:30:55;;;;;;;14.13;12.77;;;15.90;99.90;;;15.69;100.00;97417.13;5092235;28;20499;-71
2023/08/27 01:33:27;;;;;;;14.60;12.40;;;15.80;99.90;;;15.93;100.00;97419.47;5083289;28;20962;-71
2023/08/27 01:35:56;;;;;;;15.23;12.70;;;16.00;99.90;;;16.06;100.00;97408.09;5091845;28;21176;-70
2023/08/27 01:38:25;;;;;;;15.27;13.67;;;16.00;99.90;;;15.96;100.00;97397.13;5083888;28;20532;-70
2023/08/27 01:40:53;;;;;;;15.00;13.40;;;16.00;99.90;;;15.91;100.00;97403.38;5085403;28;20454;-71
2023/08/27 01:43:20;;;;;;;14.87;13.47;;;15.90;99.90;;;15.91;100.00;97410.75;5090949;28;20459;-70
2023/08/27 01:45:48;;;;;;;15.27;13.77;;;15.90;99.90;;;15.90;100.00;97428.19;5091784;28;20468;-71
2023/08/27 01:48:15;;;;;;;14.80;13.30;;;15.90;99.90;;;15.90;100.00;97417.28;5091727;28;20505;-70
2023/08/27 01:50:42;;;;;;;13.87;12.57;;;15.80;99.90;;;15.97;100.00;97417.84;5089976;28;20503;-71
2023/08/27 01:53:09;;;;;;;13.30;12.00;;;15.90;99.90;;;15.85;100.00;97416.16;5089208;28;20500;-71
2023/08/27 01:55:38;;;;;;;17.80;12.80;;;15.90;99.90;;;15.90;100.00;97418.09;5084917;28;20447;-70
2023/08/27 01:58:06;;;;;;;16.00;14.30;;;15.90;99.90;;;15.81;100.00;97415.03;5090701;28;20457;-71
2023/08/27 02:00:33;;;;;;;14.43;12.90;;;15.90;99.90;;;15.76;100.00;97392.38;5090598;28;20471;-72
2023/08/27 02:03:00;;;;;;;14.83;13.23;;;15.90;99.90;;;15.66;100.00;97371.38;5089689;28;20455;-71
2023/08/27 02:05:28;;;;;;;15.37;13.83;;;15.90;99.90;;;15.78;100.00;97365.72;5091404;28;20471;-71
2023/08/27 02:07:55;;;;;;;16.17;14.67;;;15.90;99.90;;;15.72;100.00;97365.69;5077578;28;20453;-72
2023/08/27 02:10:22;;;;;;;16.00;14.37;;;15.90;99.90;;;15.71;100.00;97360.53;5082774;28;20456;-70
2023/08/27 02:12:50;;;;;;;20.90;15.80;;;15.90;99.90;;;15.67;100.00;97364.84;5081983;28;20512;-71
2023/08/27 02:15:18;;;;;;;19.43;15.00;;;15.90;99.90;;;15.77;100.00;97375.78;5075864;28;20440;-71
2023/08/27 02:17:45;;;;;;;18.13;15.30;;;15.90;99.90;;;15.78;100.00;97382.88;5091344;28;20663;-72
2023/08/27 02:20:12;;;;;;;18.40;15.87;;;15.90;99.90;;;15.88;100.00;97367.69;5089778;28;20443;-71
2023/08/27 02:22:39;;;;;;;17.17;15.17;;;16.00;99.90;;;15.56;100.00;97328.56;5088768;28;20439;-71
2023/08/27 02:25:08;;;;;;;19.20;15.77;;;16.00;99.90;;;15.83;100.00;97377.44;5088168;28;20928;-72
2023/08/27 02:27:35;;;;;;;17.67;15.77;;;16.00;99.90;;;15.89;100.00;97383.75;5090946;28;20480;-70
2023/08/27 02:30:05;;;;;;;18.77;15.10;;;16.00;99.90;;;15.81;100.00;97382.34;5091174;28;20440;-72
2023/08/27 02:32:32;;;;;;;18.57;14.70;;;15.90;99.90;;;15.71;100.00;97365.97;5089393;28;20450;-71
2023/08/27 02:34:59;;;;;;;18.03;15.50;;;15.80;99.90;;;15.80;100.00;97366.28;5090203;28;20513;-70
2023/08/27 02:37:27;;;;;;;16.73;14.97;;;15.90;99.90;;;15.74;100.00;97373.59;5091074;28;20448;-70
2023/08/27 02:39:54;;;;;;;16.70;15.00;;;15.90;99.90;;;15.80;100.00;97375.25;5089667;28;21277;-71
2023/08/27 02:42:21;;;;;;;17.80;14.50;;;15.90;99.90;;;15.78;100.00;97387.50;5088512;28;20803;-71
2023/08/27 02:44:48;;;;;;;22.30;15.73;;;15.80;99.90;;;15.94;100.00;97377.53;5090527;28;20695;-71
2023/08/27 02:47:17;;;;;;;16.87;15.17;;;16.00;99.90;;;15.96;100.00;97375.34;5089474;28;20471;-71
2023/08/27 02:49:44;;;;;;;14.87;13.47;;;16.00;99.90;;;15.93;100.00;97390.34;5089663;28;20460;-71
2023/08/27 02:52:12;;;;;;;16.23;14.53;;;16.00;99.90;;;15.90;100.00;97373.69;5089928;28;20444;-71
2023/08/27 02:54:39;;;;;;;16.40;13.70;;;15.90;99.90;;;15.91;100.00;97380.78;5089506;28;20483;-71
2023/08/27 02:57:06;;;;;;;15.90;14.40;;;15.90;99.90;;;15.80;100.00;97388.88;5089179;28;20558;-72
2023/08/27 02:59:33;;;;;;;15.37;13.53;;;15.90;99.90;;;15.98;100.00;97387.63;5087680;28;20670;-71
2023/08/27 03:02:00;;;;;;;15.60;14.00;;;16.00;99.90;;;15.89;100.00;97394.66;5085417;28;20436;-71
2023/08/27 03:04:29;;;;;;;18.57;14.30;;;16.00;99.90;;;15.98;100.00;97386.78;5090047;28;20471;-71
2023/08/27 03:06:56;;;;;;;16.37;14.77;;;16.00;99.90;;;16.05;100.00;97372.94;5087796;28;21309;-71
2023/08/27 03:09:24;;;;;;;18.30;14.47;;;16.00;99.90;;;16.11;100.00;97386.31;5088380;28;20842;-71
2023/08/27 03:11:51;;;;;;;16.83;15.23;;;16.10;99.90;;;15.96;100.00;97389.81;5084248;28;20448;-71
2023/08/27 03:14:18;;;;;;;17.63;14.90;;;16.00;99.90;;;15.99;100.00;97383.81;5089138;28;21562;-71
2023/08/27 03:16:45;;;;;;;16.50;14.90;;;16.10;99.90;;;16.06;100.00;97389.03;5089517;28;20451;-70
2023/08/27 03:19:12;;;;;;;15.80;14.40;;;16.10;99.90;;;15.88;100.00;97394.91;5089483;28;20493;-70
2023/08/27 03:21:41;;;;;;;15.53;14.10;;;16.00;99.90;;;15.84;100.00;97402.78;5087751;28;20495;-71
2023/08/27 03:24:08;;;;;;;14.90;13.30;;;16.00;99.90;;;15.86;100.00;97390.56;5090380;28;20523;-71
2023/08/27 03:26:36;;;;;;;14.70;13.30;;;16.00;99.90;;;15.91;100.00;97402.56;5089966;28;20988;-71
2023/08/27 03:29:03;;;;;;;15.23;13.83;;;16.00;99.90;;;15.70;100.00;97375.22;5089750;28;20496;-71
2023/08/27 03:31:30;;;;;;;15.17;13.67;;;16.00;99.90;;;15.81;100.00;97371.44;5090398;28;20517;-71
2023/08/27 03:33:58;;;;;;;15.23;13.83;;;15.90;99.90;;;15.81;100.00;97366.00;5090894;28;20458;-71
2023/08/27 03:36:25;;;;;;;14.50;13.10;;;15.90;99.90;;;15.89;100.00;97382.94;5089079;28;20803;-71
2023/08/27 03:38:54;;;;;;;14.47;12.97;;;15.90;99.90;;;15.92;100.00;97399.59;5088159;28;20443;-71
2023/08/27 03:41:21;;;;;;;13.60;12.33;;;16.00;99.90;;;15.99;100.00;97407.50;5083779;28;20496;-71
2023/08/27 03:43:48;;;;;;;14.90;13.40;;;16.00;99.90;;;15.91;100.00;97408.03;5090224;28;21004;-71
2023/08/27 03:46:15;;;;;;;15.13;13.60;;;16.00;99.90;;;15.83;100.00;97401.94;5085300;28;20518;-71
2023/08/27 03:48:43;;;;;;;14.80;12.33;;;15.90;99.90;;;15.84;100.00;97413.69;5090245;28;20451;-71
2023/08/27 03:51:10;;;;;;;14.03;12.63;;;15.90;99.90;;;15.86;100.00;97401.44;5090405;28;20452;-72
2023/08/27 03:53:37;;;;;;;14.60;13.10;;;15.90;99.90;;;16.02;100.00;97385.19;5088695;28;20476;-72
2023/08/27 03:56:06;;;;;;;14.37;12.97;;;16.00;99.90;;;16.00;100.00;97398.28;5089607;28;20752;-72
2023/08/27 03:58:33;;;;;;;14.67;13.27;;;16.00;99.90;;;15.97;100.00;97390.59;5094113;28;20447;-72
2023/08/27 04:01:01;;;;;;;14.90;13.50;;;16.10;99.90;;;16.06;100.00;97389.03;5093744;28;20513;-71
2023/08/27 04:03:28;;;;;;;15.60;13.90;;;16.10;99.90;;;16.02;100.00;97382.47;5092155;28;20928;-72
2023/08/27 04:05:56;;;;;;;14.37;12.87;;;16.10;99.90;;;16.15;100.00;97375.69;5092797;28;20497;-71
2023/08/27 04:08:23;;;;;;;15.33;13.73;;;16.20;99.90;;;16.05;100.00;97376.47;5091943;28;20455;-71
2023/08/27 04:10:50;;;;;;;16.47;14.37;;;16.20;99.90;;;15.97;100.00;97369.66;5088990;28;20452;-71
2023/08/27 04:13:19;;;;;;;16.80;14.60;;;16.10;99.90;;;16.19;100.00;97368.63;5089609;28;20453;-71
2023/08/27 04:15:47;;;;;;;14.10;12.70;;;16.20;99.90;;;16.18;100.00;97374.34;5092336;28;20449;-71
2023/08/27 04:18:15;;;;;;;14.60;13.30;;;16.20;99.90;;;16.18;100.00;97374.34;5093478;28;20545;-71
2023/08/27 04:20:42;;;;;;;14.33;13.03;;;16.20;99.90;;;16.20;100.00;97369.44;5093776;28;20449;-71
2023/08/27 04:23:09;;;;;;;14.67;13.17;;;16.20;99.90;;;16.23;100.00;97356.13;5092400;28;20468;-71
2023/08/27 04:25:36;;;;;;;14.33;13.03;;;16.30;99.90;;;16.13;100.00;97367.78;5093510;28;20459;-71
2023/08/27 04:28:04;;;;;;;15.83;14.23;;;16.20;99.90;;;16.07;100.00;97379.75;5093209;28;20697;-71
2023/08/27 04:30:33;;;;;;;15.70;13.50;;;16.10;99.90;;;16.13;100.00;97386.84;5092038;28;20909;-71
2023/08/27 04:33:00;;;;;;;14.70;13.30;;;16.10;99.90;;;16.11;100.00;97396.41;5092597;28;20444;-71
2023/08/27 04:35:28;;;;;;;14.30;12.93;;;16.20;99.90;;;16.31;100.00;97395.66;5092391;28;20943;-71
2023/08/27 04:37:55;;;;;;;14.47;13.10;;;16.30;99.90;;;16.29;100.00;97403.25;5093322;28;20456;-71
2023/08/27 04:40:22;;;;;;;14.23;12.93;;;16.30;99.90;;;16.33;100.00;97398.09;5091166;28;20933;-71
2023/08/27 04:42:49;;;;;;;14.13;12.83;;;16.30;99.90;;;16.20;100.00;97397.50;5091007;28;20466;-71
2023/08/27 04:45:17;;;;;;;15.13;13.73;;;16.30;99.90;;;16.18;100.00;97390.69;5092920;28;20496;-72
2023/08/27 04:47:46;;;;;;;15.60;13.70;;;16.30;99.90;;;16.18;100.00;97387.97;5090792;28;20512;-72
2023/08/27 04:50:13;;;;;;;14.53;13.10;;;16.30;99.90;;;16.11;100.00;97380.84;5092711;28;20819;-71
2023/08/27 04:52:40;;;;;;;13.97;12.57;;;16.30;99.90;;;16.04;100.00;97388.47;5092009;28;20435;-72
2023/08/27 04:55:09;;;;;;;15.27;13.67;;;16.20;99.90;;;16.10;100.00;97383.88;5092567;28;20756;-71
2023/08/27 04:57:38;;;;;;;20.93;13.60;;;16.20;99.90;;;16.19;100.00;97376.00;5092298;28;20443;-72
2023/08/27 05:00:08;;;;;;;14.93;13.50;;;16.30;99.90;;;16.32;100.00;97378.22;5092313;28;20504;-71
2023/08/27 05:02:35;;;;;;;14.97;13.50;;;16.30;99.90;;;16.38;100.00;97374.41;5090817;28;20451;-71
2023/08/27 05:05:05;;;;;;;14.80;13.20;;;16.30;99.90;;;16.44;100.00;97377.97;5098336;28;20444;-71
2023/08/27 05:07:32;;;;;;;17.73;13.77;;;16.40;99.90;;;16.44;100.00;97388.88;5091336;28;20463;-71
2023/08/27 05:09:59;;;;;;;13.17;11.87;;;16.40;99.90;;;16.62;100.00;97386.72;5089186;28;20451;-71
2023/08/27 05:12:26;;;;;;;14.83;13.30;;;16.50;99.90;;;16.58;100.00;97378.25;5084702;28;20455;-72
2023/08/27 05:14:53;;;;;;;15.17;13.77;;;16.50;99.90;;;16.49;100.00;97382.59;5091112;28;20445;-71
2023/08/27 05:17:20;;;;;;;18.23;13.93;;;16.50;99.90;;;16.45;100.00;97378.75;5092390;28;20463;-72
2023/08/27 05:19:47;;;;;;;13.97;12.30;;;16.50;99.90;;;16.60;100.00;97391.63;5092407;28;20454;-72
2023/08/27 05:22:16;;;;;;;15.97;14.27;;;16.50;99.90;;;16.73;100.00;97384.81;5090345;28;20792;-72
2023/08/27 05:24:43;;;;;;;14.40;13.00;;;16.70;99.90;;;16.73;100.00;97393.00;5085683;28;20448;-72
2023/08/27 05:27:10;;;;;;;14.00;12.80;;;16.80;99.90;;;16.68;100.00;97397.34;5091974;28;20467;-72
2023/08/27 05:29:38;;;;;;;14.33;12.93;;;16.70;99.90;;;16.92;100.00;97405.03;5092065;28;20945;-72
2023/08/27 05:32:05;;;;;;;12.97;11.77;;;16.90;99.90;;;16.92;100.00;97399.56;5090091;28;20501;-72
2023/08/27 05:34:33;;;;;;;14.10;12.80;;;16.90;99.90;;;16.92;100.00;97382.38;5092008;28;20444;-72
2023/08/27 05:37:00;;;;;;;14.23;12.77;;;17.00;99.90;;;16.75;100.00;97385.34;5094228;28;20452;-70
2023/08/27 05:39:29;;;;;;;14.50;13.00;;;16.90;99.90;;;16.67;100.00;97381.25;5089542;28;20862;-70
2023/08/27 05:41:57;;;;;;;15.20;13.80;;;16.80;99.90;;;16.55;100.00;97379.63;5097881;28;20710;-71
2023/08/27 05:44:24;;;;;;;13.70;12.40;;;16.80;99.90;;;16.56;100.00;97375.81;5091393;28;20449;-71
2023/08/27 05:46:51;;;;;;;16.97;13.00;;;16.80;99.90;;;16.54;100.00;97372.53;5092028;28;20481;-71
2023/08/27 05:49:18;;;;;;;15.00;13.50;;;16.80;99.90;;;16.53;100.00;97375.53;5091846;28;20513;-71
2023/08/27 05:51:46;;;;;;;15.80;14.10;;;16.80;99.90;;;16.55;100.00;97371.44;5089817;28;20505;-72
2023/08/27 05:54:13;;;;;;;15.83;14.30;;;16.80;99.90;;;16.60;100.00;97369.81;5090230;28;20455;-72
2023/08/27 05:56:42;;;;;;;13.43;12.07;;;16.90;99.90;;;16.65;100.00;97373.38;5090420;28;20458;-71
2023/08/27 05:59:13;;;;;;;14.03;12.70;;;16.90;99.90;;;16.69;100.00;97365.47;5087402;28;20526;-71
2023/08/27 06:01:41;;;;;;;14.00;12.60;;;16.90;99.90;;;16.77;100.00;97369.56;5090998;28;20452;-74
2023/08/27 06:04:08;;;;;;;16.30;14.60;;;17.00;99.90;;;16.77;100.00;97350.47;5089770;28;20480;-71
2023/08/27 06:06:37;;;;;;;14.80;13.40;;;17.00;99.90;;;16.94;100.00;97353.75;5090766;28;20462;-72
2023/08/27 06:09:05;;;;;;;15.93;14.53;;;17.10;99.90;;;17.01;100.00;97339.03;5084236;28;20456;-72
2023/08/27 06:11:32;;;;;;;14.83;13.43;;;17.20;99.90;;;17.02;100.00;97335.19;5088438;28;20986;-72
2023/08/27 06:14:00;;;;;;;14.10;12.80;;;17.20;99.90;;;17.16;100.00;97336.28;5087598;28;20453;-72
2023/08/27 06:16:28;;;;;;;15.30;13.70;;;17.30;99.90;;;17.49;100.00;97347.66;5085504;28;20447;-71
2023/08/27 06:18:55;;;;;;;13.37;12.07;;;17.40;99.90;;;17.41;100.00;97345.53;5089416;28;20777;-71
2023/08/27 06:21:22;;;;;;;13.33;12.13;;;17.50;99.90;;;17.26;100.00;97347.19;5090528;28;20500;-70
2023/08/27 06:23:49;;;;;;;14.50;13.10;;;17.40;99.90;;;17.20;100.00;97318.25;5091127;28;20460;-71
2023/08/27 06:26:17;;;;;;;14.80;13.40;;;17.40;99.90;;;17.21;100.00;97327.28;5090933;28;20448;-71
2023/08/27 06:28:50;;;;;;;14.93;13.47;;;17.30;99.90;;;17.19;100.00;97326.72;5091073;28;20979;-70
2023/08/27 06:31:21;;;;;;;14.57;13.17;;;17.30;99.90;;;17.37;100.00;97317.94;5093984;28;20451;-71
2023/08/27 06:33:48;;;;;;;12.43;11.23;;;17.40;99.90;;;17.67;100.00;97329.06;5095220;28;20443;-70
2023/08/27 06:36:15;;;;;;;11.47;10.33;;;17.50;99.90;;;17.79;100.00;97340.47;5093662;28;20453;-70
2023/08/27 06:38:44;;;;;;;11.30;10.30;;;17.60;99.90;;;17.78;100.00;97330.66;5092845;28;20451;-71
2023/08/27 06:41:11;;;;;;;10.77;9.47;;;17.70;99.90;;;17.75;100.00;97333.94;5094142;28;20479;-72
2023/08/27 06:43:41;;;;;;;10.60;9.60;;;17.70;99.90;;;17.51;100.00;97317.38;5105159;28;20787;-71
2023/08/27 06:46:11;;;;;;;9.80;8.60;;;17.70;99.90;;;17.45;100.00;97307.56;5092816;28;20458;-71
2023/08/27 06:48:40;;;;;;;10.53;9.43;;;17.60;99.90;;;17.49;100.00;97320.38;5109392;28;20483;-71
2023/08/27 06:51:07;;;;;;;9.30;8.50;;;17.60;99.90;;;17.70;100.00;97323.03;5092217;28;20488;-71
2023/08/27 06:53:34;;;;;;;8.83;8.03;;;17.70;99.90;;;17.55;100.00;97330.19;5085242;28;20448;-71
2023/08/27 06:56:01;;;;;;;10.77;9.77;;;17.70;99.90;;;17.36;100.00;97316.31;5093956;28;20447;-71
2023/08/27 06:58:30;;;;;;;10.20;9.30;;;17.60;99.90;;;17.51;100.00;97323.63;5089569;28;20489;-70
2023/08/27 07:00:57;;;;;;;9.00;8.20;;;17.50;99.90;;;17.43;100.00;97329.69;5090811;28;20454;-70
2023/08/27 07:03:24;;;;;;;7.93;7.30;;;17.60;99.90;;;17.39;100.00;97271.28;5088940;28;20882;-72
2023/08/27 07:05:53;;;;;;;8.60;7.80;;;17.70;99.90;;;17.67;99.67;97327.16;5090675;28;20447;-72
2023/08/27 07:08:20;;;;;;;8.20;7.50;;;17.80;99.90;;;17.39;100.00;97323.16;5088751;28;20479;-70
2023/08/27 07:10:48;;;;;;;9.33;8.53;;;17.60;99.90;;;17.74;100.00;97321.38;5090731;28;20447;-71
2023/08/27 07:13:15;;;;;;;8.13;7.43;;;17.70;99.90;;;17.53;100.00;97309.72;5089866;28;20553;-70
2023/08/27 07:15:42;;;;;;;8.60;7.70;;;17.80;99.90;;;17.54;100.00;97301.25;5089282;28;20453;-71
2023/08/27 07:18:09;;;;;;;8.43;7.73;;;17.70;99.90;;;17.64;100.00;97311.31;5090520;28;20458;-71
2023/08/27 07:20:36;;;;;;;8.10;7.50;;;17.80;99.90;;;17.60;100.00;97315.72;5090493;28;20936;-71
2023/08/27 07:23:05;;;;;;;7.40;6.70;;;17.90;99.90;;;18.17;100.00;97322.84;5087918;28;20466;-71
2023/08/27 07:25:35;;;;;;;7.77;7.17;;;18.10;99.90;;;18.70;95.25;97330.44;5098301;28;20797;-71
2023/08/27 07:28:02;;;;;;;7.33;6.73;;;18.60;99.90;;;18.46;94.88;97338.53;5090566;28;20473;-72
2023/08/27 07:30:29;;;;;;;7.50;6.80;;;18.70;97.50;;;18.82;94.46;97335.53;5093150;28;20456;-72
2023/08/27 07:32:56;;;;;;;6.60;6.10;;;18.90;97.80;;;19.10;91.62;97327.66;5092622;28;21018;-72
2023/08/27 07:35:23;;;;;;;6.37;5.90;;;19.10;96.90;;;19.34;91.24;97335.13;5093948;28;20452;-72
2023/08/27 07:37:51;;;;;;;6.57;6.07;;;19.30;96.60;;;19.45;89.38;97331.13;5092239;28;20445;-71
2023/08/27 07:40:19;;;;;;;6.70;6.20;;;19.40;95.80;;;19.36;89.62;97325.47;5092964;28;20445;-71
2023/08/27 07:42:46;;;;;;;7.80;5.27;;;19.40;95.30;;;19.25;90.20;97310.25;5093203;28;20506;-71
2023/08/27 07:45:14;;;;;;;6.07;5.47;;;19.40;95.40;;;19.48;90.83;97314.13;5093871;28;20452;-72
2023/08/27 07:47:42;;;;;;;6.30;5.80;;;19.40;96.30;;;19.57;89.41;97317.06;5094161;28;20995;-72
2023/08/27 07:50:09;;;;;;;6.00;5.53;;;19.60;95.60;;;19.54;89.91;97315.72;5093385;28;20516;-71
2023/08/27 07:52:37;;;;;;;6.37;5.87;;;19.50;95.40;;;19.50;91.05;97331.09;5087774;28;20453;-72
2023/08/27 07:55:05;;;;;;;5.37;4.93;;;19.60;95.90;;;19.62;90.63;97327.94;5091914;28;20445;-72
2023/08/27 07:57:34;;;;;;;5.13;4.80;;;19.70;95.80;;;19.39;90.19;97340.53;5092748;28;20451;-72
2023/08/27 08:00:01;;;;;;;4.50;4.20;;;19.70;95.10;;;19.54;90.06;97343.09;5092761;28;20457;-72
2023/08/27 08:02:28;;;;;;;4.93;4.50;;;19.60;95.40;;;19.44;91.46;97343.19;5089180;28;20445;-72
2023/08/27 08:04:56;;;;;;;5.20;4.20;;;19.70;95.70;;;19.58;90.32;97358.94;5093266;28;20454;-73
2023/08/27 08:07:23;;;;;;;4.50;4.10;;;19.70;95.20;;;20.31;85.44;97361.66;5093399;28;20540;-71
2023/08/27 08:09:50;;;;;;;4.90;4.50;;;20.10;94.50;;;20.38;84.04;97365.66;5093871;28;20454;-72
2023/08/27 08:12:17;;;;;;;4.90;4.50;;;20.30;93.90;;;19.96;84.08;97332.50;5091891;28;20512;-72
2023/08/27 08:14:46;;;;;;;4.10;3.70;;;20.30;93.30;;;19.91;86.70;97372.81;5093805;28;20454;-71
2023/08/27 08:17:13;;;;;;;10.03;4.00;;;20.20;93.60;;;20.42;85.45;97367.84;5091712;28;20447;-72
2023/08/27 08:19:40;;;;;;;4.17;3.87;;;20.40;94.00;;;20.07;85.06;97346.88;5093880;28;20462;-72
2023/08/27 08:22:07;;;;;;;4.40;4.10;;;20.30;93.60;;;20.18;85.71;97385.16;5092638;28;20459;-72
2023/08/27 08:24:34;;;;;;;4.20;3.90;;;20.30;93.70;;;20.36;83.61;97392.56;5102712;28;20455;-72
2023/08/27 08:27:03;;;;;;;3.90;3.60;;;20.40;93.20;;;19.88;84.60;97395.34;5093284;28;20951;-71
2023/08/27 08:29:33;;;;;;;4.23;3.93;;;20.10;93.10;;;19.99;85.24;97388.66;5106094;28;20477;-72
2023/08/27 08:32:02;;;;;;;4.70;4.13;;;20.10;93.40;;;20.18;83.50;97382.41;5092561;28;20444;-72
2023/08/27 08:34:30;;;;;;;4.90;3.70;;;20.10;93.10;;;20.38;83.47;97378.56;5084307;28;20492;-72
2023/08/27 08:36:57;;;;;;;3.70;3.40;;;20.30;93.20;;;20.17;82.87;97378.03;5085114;28;20454;-72
2023/08/27 08:39:25;;;;;;;3.37;3.10;;;20.30;92.80;;;20.60;80.13;97378.00;5091438;28;20459;-72
2023/08/27 08:42:03;;;;;;;3.53;3.23;;;20.50;92.40;;;20.98;77.98;97373.59;5089985;28;20830;-73
2023/08/27 08:44:39;;;;;;;3.33;3.13;;;20.80;92.10;;;20.93;77.92;97383.56;5082646;28;20439;-73
2023/08/27 08:47:10;;;;;;;2.70;2.50;;;21.00;91.60;;;21.39;76.90;97394.09;5091185;28;20442;-73
2023/08/27 08:49:41;;;;;;;3.80;3.50;;;21.30;91.50;;;21.65;74.86;97383.44;5092197;28;20463;-72
2023/08/27 08:52:10;;;;;;;2.83;2.63;;;21.60;91.10;;;21.47;75.80;97383.22;5090855;28;20531;-73
2023/08/27 08:54:40;;;;;;;2.90;2.70;;;21.80;91.10;;;21.22;77.04;97377.03;5091223;28;20543;-74
2023/08/27 08:57:11;;;;;;;3.00;2.80;;;21.40;90.90;;;21.77;74.08;97375.53;5092641;28;20788;-72
2023/08/27 08:59:39;;;;;;;2.80;2.60;;;21.70;90.80;;;21.22;76.58;97392.69;5092785;28;20535;-73
2023/08/27 09:02:12;;;;;;;2.00;1.90;;;21.60;90.80;;;22.28;70.55;97383.88;5090772;28;20456;-72
2023/08/27 09:04:41;;;;;;;2.03;1.93;;;22.00;90.20;;;22.27;69.92;97393.25;5092388;28;20944;-71
2023/08/27 09:07:09;;;;;;;2.17;2.07;;;22.30;89.60;;;21.63;70.92;97399.41;5091452;28;20470;-72
2023/08/27 09:09:38;;;;;;;1.70;1.60;;;22.10;88.70;;;21.29;71.87;97370.34;5095887;28;20467;-71
2023/08/27 09:12:08;;;;;;;1.87;1.77;;;21.70;89.30;;;21.35;73.00;97413.09;5093590;28;20446;-72
2023/08/27 09:14:37;;;;;;;2.60;1.83;;;21.50;89.50;;;21.44;73.91;97421.47;5093917;28;20451;-71
2023/08/27 09:17:05;;;;;;;1.80;1.70;;;21.40;90.10;;;21.27;72.83;97430.25;5091168;28;20470;-72
2023/08/27 09:19:33;;;;;;;1.90;1.80;;;21.30;89.80;;;21.15;74.26;97433.47;5095823;28;20452;-71
2023/08/27 09:22:01;;;;;;;2.30;2.10;;;21.20;90.10;;;20.80;74.62;97436.44;5091663;28;20465;-71
2023/08/27 09:24:28;;;;;;;1.70;1.60;;;21.10;90.00;;;20.82;75.37;97438.94;5084567;28;20447;-72
2023/08/27 09:26:56;;;;;;;1.97;1.53;;;20.90;90.10;;;20.85;74.70;97447.38;5088125;28;20509;-72
2023/08/27 09:29:23;;;;;;;1.60;1.50;;;20.90;90.00;;;20.27;75.50;97438.25;5092029;28;20537;-71
2023/08/27 09:31:56;;;;;;;1.63;1.47;;;20.70;89.80;;;19.85;77.34;97428.81;5091545;28;20463;-72
2023/08/27 09:34:23;;;;;;;2.83;1.60;;;20.40;90.20;;;20.18;76.77;97440.00;5083878;28;20464;-72
2023/08/27 09:36:52;;;;;;;2.07;1.90;;;20.30;90.30;;;20.44;75.96;97439.69;5089258;28;20890;-71
2023/08/27 09:39:20;;;;;;;1.77;1.67;;;20.40;90.30;;;20.26;78.40;97422.06;5091368;28;20551;-72
2023/08/27 09:41:48;;;;;;;1.60;1.47;;;20.40;90.70;;;19.93;79.67;97425.47;5103098;28;20543;-73
2023/08/27 09:44:15;;;;;;;1.70;1.40;;;20.30;90.80;;;20.05;80.06;97417.66;5090756;28;20544;-72
2023/08/27 09:46:43;;;;;;;1.50;1.33;;;20.20;91.00;;;20.58;78.37;97413.16;5091732;28;20485;-72
2023/08/27 09:49:10;;;;;;;2.10;1.90;;;20.50;91.10;;;20.24;79.36;97414.13;5091415;28;20767;-72
2023/08/27 09:51:41;;;;;;;2.10;1.83;;;20.50;91.00;;;20.29;80.27;97416.00;5086298;28;20806;-73
2023/08/27 09:54:17;;;;;;;1.40;1.30;;;20.30;91.30;;;20.15;80.35;97413.16;5090235;28;20438;-72
2023/08/27 09:56:46;;;;;;;1.30;1.20;;;20.20;91.20;;;20.29;78.53;97414.09;5090110;28;20462;-73
2023/08/27 09:59:16;;;;;;;1.57;1.37;;;20.30;91.10;;;20.42;77.86;97409.00;5091457;28;20947;-73
2023/08/27 10:01:48;;;;;;;1.63;1.37;;;20.50;90.90;;;20.01;78.59;97361.78;5089524;28;20542;-72
2023/08/27 10:04:17;;;;;;;1.80;1.40;;;20.50;91.00;;;20.07;79.08;97398.16;5091156;28;20454;-73
2023/08/27 10:06:44;;;;;;;1.50;1.40;;;20.40;90.90;;;20.78;77.70;97384.59;5091344;28;20558;-73
2023/08/27 10:09:12;;;;;;;1.83;1.60;;;20.60;91.10;;;20.74;76.78;97388.22;5084325;28;20521;-72